Time;durP1;ratioP1;P1;durP2;ratioP2;P2;SDS_P1;SDS_P2;PMS_P1;PMS_P2;Temp;Humidity;BMP_temperature;BMP_pressure;BME280_temperature;BME280_humidity;BME280_pressure;Samples;Min_cycle;Max_cycle;Signal;HPM_P1;HPM_P2
2022/07/25 00:05:12;;;;;;;15.20;13.87;;;;;24.30;98653.00;;;;16718694;28;20585;-81
2022/07/25 00:13:15;;;;;;;14.27;13.27;;;;;24.90;98639.00;;;;16714650;28;20226;-82
2022/07/25 00:21:19;;;;;;;13.53;12.53;;;;;25.50;98626.00;;;;16710761;28;20222;-82
2022/07/25 00:29:21;;;;;;;15.30;14.20;;;;;24.40;98635.00;;;;16716732;28;20193;-82
2022/07/25 00:37:25;;;;;;;14.53;13.43;;;;;24.70;98630.00;;;;16723183;28;20283;-82
2022/07/25 00:45:28;;;;;;;13.57;12.47;;;;;25.10;98636.00;;;;16711326;28;20259;-82
2022/07/25 00:53:32;;;;;;;14.10;13.00;;;;;26.20;98637.00;;;;16710481;28;20252;-82
2022/07/25 01:01:34;;;;;;;14.33;13.00;;;;;25.30;98629.00;;;;16712735;28;20276;-82
2022/07/25 01:09:38;;;;;;;14.23;13.03;;;;;23.60;98627.00;;;;16720330;28;20205;-82
2022/07/25 01:17:41;;;;;;;13.90;12.90;;;;;23.90;98625.00;;;;16711918;28;20936;-82
2022/07/25 01:25:45;;;;;;;14.80;13.60;;;;;23.10;98624.00;;;;16723485;28;20230;-82
2022/07/25 01:33:47;;;;;;;15.20;14.00;;;;;23.20;98610.00;;;;16713673;28;20221;-82
2022/07/25 01:41:51;;;;;;;14.70;13.50;;;;;22.60;98610.00;;;;16715429;28;20311;-82
2022/07/25 01:49:54;;;;;;;14.23;13.10;;;;;22.40;98608.00;;;;16723108;28;20205;-83
2022/07/25 01:57:58;;;;;;;14.13;12.93;;;;;23.90;98601.00;;;;16718018;28;20295;-82
2022/07/25 02:06:02;;;;;;;13.57;12.47;;;;;23.30;98598.00;;;;16723666;28;20762;-83
2022/07/25 02:14:05;;;;;;;17.10;14.13;;;;;22.40;98586.00;;;;16724679;28;20271;-82
2022/07/25 02:22:08;;;;;;;13.93;12.83;;;;;24.20;98585.00;;;;16725960;28;20706;-82
2022/07/25 02:30:13;;;;;;;15.50;14.20;;;;;23.30;98580.00;;;;16729140;28;20679;-81
2022/07/25 02:38:18;;;;;;;14.67;13.57;;;;;24.10;98574.00;;;;16725089;28;20230;-81
2022/07/25 02:46:22;;;;;;;14.50;13.40;;;;;23.20;98559.00;;;;16728809;28;20575;-81
2022/07/25 02:54:25;;;;;;;15.27;14.13;;;;;22.80;98554.00;;;;16720062;28;20221;-82
2022/07/25 03:02:29;;;;;;;14.53;13.17;;;;;22.80;98557.00;;;;16722782;28;20252;-81
2022/07/25 03:10:33;;;;;;;15.90;14.50;;;;;22.00;98567.00;;;;16721524;28;20267;-81
2022/07/25 03:18:36;;;;;;;16.20;14.90;;;;;22.50;98564.00;;;;16726981;28;20230;-81
2022/07/25 03:26:39;;;;;;;15.00;13.80;;;;;22.40;98558.00;;;;16722852;28;20289;-81
2022/07/25 03:34:43;;;;;;;15.20;14.10;;;;;22.70;98538.00;;;;16727254;28;20214;-82
2022/07/25 03:42:46;;;;;;;16.23;14.70;;;;;23.50;98525.00;;;;16719110;28;20317;-82
2022/07/25 03:50:49;;;;;;;13.87;12.57;;;;;24.50;98514.00;;;;16718975;28;20614;-82
2022/07/25 03:58:52;;;;;;;16.07;14.77;;;;;23.60;98512.00;;;;16724359;28;20226;-81
2022/07/25 04:06:56;;;;;;;13.77;12.77;;;;;23.70;98504.00;;;;16724936;28;20256;-81
2022/07/25 04:14:58;;;;;;;15.80;14.57;;;;;24.80;98494.00;;;;16740136;28;20221;-82
2022/07/25 04:23:02;;;;;;;15.40;14.20;;;;;24.20;98495.00;;;;16721034;28;20229;-81
2022/07/25 04:31:05;;;;;;;14.90;13.80;;;;;24.20;98494.00;;;;16722741;28;20229;-82
2022/07/25 04:39:09;;;;;;;16.03;14.73;;;;;23.00;98493.00;;;;16713374;28;20285;-82
2022/07/25 04:47:11;;;;;;;14.63;13.43;;;;;23.60;98499.00;;;;16710545;28;20246;-80
2022/07/25 04:55:15;;;;;;;15.80;14.60;;;;;23.90;98497.00;;;;16704337;28;20771;-79
2022/07/25 05:03:18;;;;;;;15.33;13.73;;;;;24.10;98488.00;;;;16702879;28;20309;-81
2022/07/25 05:11:22;;;;;;;17.17;15.73;;;;;24.50;98485.00;;;;16713643;28;20230;-80
2022/07/25 05:19:24;;;;;;;17.30;15.80;;;;;24.20;98484.00;;;;16714858;28;20202;-80
2022/07/25 05:27:28;;;;;;;15.20;13.90;;;;;25.20;98481.00;;;;16720833;28;20269;-74
2022/07/25 05:35:31;;;;;;;15.27;13.80;;;;;26.80;98471.00;;;;16717698;28;20218;-74
2022/07/25 05:43:35;;;;;;;18.23;16.63;;;;;25.40;98465.00;;;;16719195;28;20226;-84
2022/07/25 05:51:37;;;;;;;18.20;16.80;;;;;24.30;98463.00;;;;16729534;28;20236;-85
2022/07/25 05:59:41;;;;;;;16.40;14.90;;;;;24.60;98449.00;;;;16718894;28;20698;-84
2022/07/25 06:07:44;;;;;;;20.37;17.37;;;;;24.90;98449.00;;;;16728049;28;20213;-87
2022/07/25 06:15:48;;;;;;;17.17;15.57;;;;;25.30;98443.00;;;;16730371;28;20233;-84
2022/07/25 06:23:50;;;;;;;17.00;15.40;;;;;25.60;98443.00;;;;16739767;28;20218;-84
2022/07/25 06:31:54;;;;;;;16.50;14.90;;;;;26.20;98430.00;;;;16723369;28;20218;-84
2022/07/25 06:39:56;;;;;;;16.27;14.83;;;;;26.60;98421.00;;;;16721611;28;20678;-84
2022/07/25 06:48:00;;;;;;;17.93;16.33;;;;;26.90;98410.00;;;;16722447;28;20213;-84
2022/07/25 06:56:03;;;;;;;16.83;15.33;;;;;27.40;98411.00;;;;16722800;28;20230;-84
2022/07/25 07:04:07;;;;;;;16.17;14.90;;;;;27.70;98412.00;;;;16725158;28;20260;-84
2022/07/25 07:12:10;;;;;;;14.50;13.20;;;;;28.10;98419.00;;;;16748916;28;20255;-84
2022/07/25 07:20:14;;;;;;;14.50;13.00;;;;;28.70;98421.00;;;;16727853;28;20299;-84
2022/07/25 07:28:17;;;;;;;15.20;13.90;;;;;29.10;98409.00;;;;16721865;28;20244;-84
2022/07/25 07:36:22;;;;;;;14.90;13.50;;;;;29.50;98410.00;;;;16722697;28;20214;-84
2022/07/25 07:44:25;;;;;;;15.47;14.03;;;;;29.80;98389.00;;;;16738209;28;20218;-84
2022/07/25 07:52:28;;;;;;;14.13;13.03;;;;;30.10;98381.00;;;;16724619;28;20221;-85
2022/07/25 08:00:34;;;;;;;14.33;12.93;;;;;30.10;98378.00;;;;16749081;28;20225;-85
2022/07/25 08:08:38;;;;;;;13.10;12.00;;;;;30.90;98385.00;;;;16729363;28;20708;-85
2022/07/25 08:16:41;;;;;;;14.47;13.27;;;;;31.70;98375.00;;;;16730589;28;20609;-84
2022/07/25 08:24:45;;;;;;;14.60;13.50;;;;;31.60;98372.00;;;;16716918;28;20718;-85
2022/07/25 08:32:49;;;;;;;14.43;13.23;;;;;32.20;98373.00;;;;16716660;28;20222;-84
2022/07/25 08:40:54;;;;;;;14.67;13.57;;;;;32.10;98374.00;;;;16716509;28;20643;-84
2022/07/25 08:48:58;;;;;;;14.13;13.00;;;;;32.90;98378.00;;;;16710725;28;20256;-85
2022/07/25 08:57:02;;;;;;;12.23;11.33;;;;;32.70;98370.00;;;;16713491;28;20808;-84
2022/07/25 09:05:05;;;;;;;13.03;11.93;;;;;32.70;98371.00;;;;16715268;28;20297;-84
2022/07/25 09:13:12;;;;;;;11.83;11.03;;;;;33.40;98355.00;;;;16712106;28;20217;-84
2022/07/25 09:21:15;;;;;;;12.30;11.13;;;;;33.40;98340.00;;;;16711801;28;20244;-84
2022/07/25 09:29:22;;;;;;;11.63;10.53;;;;;33.70;98340.00;;;;16720202;28;20265;-85
2022/07/25 09:37:27;;;;;;;11.13;10.37;;;;;34.10;98335.00;;;;16723278;28;20237;-84
2022/07/25 09:45:31;;;;;;;11.37;10.57;;;;;34.40;98341.00;;;;16712218;28;20742;-84
2022/07/25 09:53:34;;;;;;;11.20;10.30;;;;;35.00;98337.00;;;;16712226;28;20272;-84
2022/07/25 10:01:42;;;;;;;12.20;11.23;;;;;35.60;98332.00;;;;16715071;28;20230;-84
2022/07/25 10:09:46;;;;;;;10.10;9.17;;;;;34.90;98326.00;;;;16738247;28;21010;-84
2022/07/25 10:17:51;;;;;;;11.20;10.40;;;;;35.40;98317.00;;;;16720628;28;20225;-84
2022/07/25 10:26:04;;;;;;;10.77;10.07;;;;;37.40;98315.00;;;;16722847;28;20314;-85
2022/07/25 10:34:10;;;;;;;10.50;9.63;;;;;36.50;98302.00;;;;16723070;28;20237;-84
2022/07/25 10:42:14;;;;;;;10.90;10.20;;;;;36.70;98305.00;;;;16723021;28;20295;-85
2022/07/25 10:58:47;;;;;;;11.93;10.93;;;;;36.90;98292.00;;;;16522342;28;20755;-72
2022/07/25 11:06:50;;;;;;;11.40;10.50;;;;;38.10;98281.00;;;;16523374;28;20216;-71
2022/07/25 11:15:00;;;;;;;10.87;10.10;;;;;39.20;98271.00;;;;16524116;28;20586;-69
2022/07/25 11:23:02;;;;;;;10.60;9.60;;;;;39.40;98272.00;;;;16521519;28;20212;-70
2022/07/25 11:31:07;;;;;;;10.87;9.90;;;;;39.10;98254.00;;;;16522764;28;20232;-71
2022/07/25 11:39:09;;;;;;;11.73;10.70;;;;;36.90;98257.00;;;;16520992;28;20601;-69
2022/07/25 11:47:25;;;;;;;10.33;9.57;;;;;36.50;98241.00;;;;16521084;28;20239;-69
2022/07/25 11:55:30;;;;;;;9.77;8.97;;;;;38.10;98245.00;;;;16518582;28;20236;-69
2022/07/25 12:03:38;;;;;;;10.10;9.40;;;;;39.20;98244.00;;;;16521021;28;20242;-70
2022/07/25 12:11:40;;;;;;;10.33;9.50;;;;;39.90;98221.00;;;;16517045;28;20262;-70
2022/07/25 12:19:45;;;;;;;9.73;8.87;;;;;37.20;98230.00;;;;16523851;28;20779;-70
2022/07/25 12:27:48;;;;;;;9.90;9.20;;;;;37.80;98228.00;;;;16518969;28;20600;-70
2022/07/25 12:35:52;;;;;;;9.20;8.50;;;;;38.10;98222.00;;;;16518728;28;20239;-73
2022/07/25 12:43:56;;;;;;;7.90;7.10;;;;;38.10;98214.00;;;;16520829;28;20235;-71
2022/07/25 12:52:00;;;;;;;9.10;8.20;;;;;37.90;98217.00;;;;16517935;28;20235;-70
2022/07/25 13:00:03;;;;;;;8.00;7.47;;;;;36.50;98222.00;;;;16517248;28;20240;-71
2022/07/25 13:08:08;;;;;;;8.90;8.03;;;;;36.40;98232.00;;;;16514767;28;20196;-72
2022/07/25 13:16:10;;;;;;;9.00;8.20;;;;;37.00;98225.00;;;;16496924;28;20230;-73
2022/07/25 13:24:14;;;;;;;10.60;9.80;;;;;37.30;98229.00;;;;16496286;28;20286;-73
2022/07/25 13:32:17;;;;;;;9.77;8.30;;;;;38.20;98213.00;;;;16487388;28;20254;-73
2022/07/25 13:40:21;;;;;;;8.70;8.00;;;;;37.70;98215.00;;;;16514403;28;20235;-73
2022/07/25 13:48:23;;;;;;;9.10;8.40;;;;;37.70;98209.00;;;;16512568;28;20251;-72
2022/07/25 13:56:27;;;;;;;8.53;7.90;;;;;38.40;98202.00;;;;16499246;28;20772;-72
2022/07/25 14:04:30;;;;;;;9.00;8.20;;;;;37.90;98200.00;;;;16494387;28;20444;-72
2022/07/25 14:12:34;;;;;;;8.37;7.77;;;;;36.90;98197.00;;;;16507931;28;20228;-71
2022/07/25 14:20:37;;;;;;;8.87;7.90;;;;;36.40;98213.00;;;;16497197;28;20227;-71
2022/07/25 14:28:40;;;;;;;8.50;8.00;;;;;35.30;98205.00;;;;16508769;28;20661;-68
2022/07/25 14:36:46;;;;;;;9.10;8.50;;;;;35.50;98210.00;;;;16504822;28;20232;-69
2022/07/25 14:44:50;;;;;;;9.00;8.30;;;;;36.50;98199.00;;;;16499045;28;20263;-69
2022/07/25 14:52:52;;;;;;;9.30;8.33;;;;;36.30;98197.00;;;;16498003;28;20276;-68
2022/07/25 15:00:56;;;;;;;9.67;8.97;;;;;36.60;98195.00;;;;16486852;28;20768;-71
2022/07/25 15:08:58;;;;;;;9.90;9.20;;;;;36.20;98198.00;;;;16495128;28;20192;-74
2022/07/25 15:17:02;;;;;;;10.40;9.50;;;;;36.60;98195.00;;;;16515862;28;20689;-74
2022/07/25 15:25:06;;;;;;;9.20;8.60;;;;;36.40;98197.00;;;;16497190;28;20283;-71
2022/07/25 15:33:09;;;;;;;8.70;8.10;;;;;36.70;98185.00;;;;16492913;28;20292;-73
2022/07/25 15:41:12;;;;;;;10.33;9.53;;;;;34.90;98215.00;;;;16486807;28;20426;-76
2022/07/25 15:49:19;;;;;;;8.77;8.07;;;;;35.30;98203.00;;;;16486548;28;20673;-73
2022/07/25 15:57:22;;;;;;;9.70;9.00;;;;;34.00;98225.00;;;;16484183;28;20593;-74
2022/07/25 16:05:26;;;;;;;10.00;9.20;;;;;33.40;98218.00;;;;16500150;28;20215;-72
2022/07/25 16:13:29;;;;;;;10.20;9.50;;;;;33.10;98222.00;;;;16507888;28;20328;-73
2022/07/25 16:21:33;;;;;;;9.80;9.13;;;;;33.40;98213.00;;;;16502341;28;20228;-74
2022/07/25 16:29:35;;;;;;;9.20;8.60;;;;;33.80;98204.00;;;;16513166;28;20262;-73
2022/07/25 16:37:39;;;;;;;9.57;8.97;;;;;33.90;98213.00;;;;16515254;28;20219;-71
2022/07/25 16:45:42;;;;;;;9.10;8.40;;;;;33.40;98212.00;;;;16515484;28;20234;-71
2022/07/25 16:53:46;;;;;;;11.70;10.13;;;;;33.80;98200.00;;;;16509110;28;20239;-71
2022/07/25 17:01:48;;;;;;;8.87;8.13;;;;;34.70;98214.00;;;;16512310;28;20223;-72
2022/07/25 17:09:53;;;;;;;8.27;7.67;;;;;35.20;98195.00;;;;16498338;28;20211;-71
2022/07/25 17:17:55;;;;;;;8.27;7.67;;;;;34.80;98196.00;;;;16514181;28;20263;-73
2022/07/25 17:25:59;;;;;;;8.40;7.70;;;;;34.40;98211.00;;;;16525398;28;20462;-72
2022/07/25 17:34:02;;;;;;;7.30;6.80;;;;;34.50;98211.00;;;;16570565;22;20225;-48
2022/07/25 17:42:06;;;;;;;7.80;7.30;;;;;34.20;98230.00;;;;16720979;28;20221;-48
2022/07/25 17:50:10;;;;;;;10.33;7.83;;;;;33.80;98219.00;;;;16722789;22;20920;-87
2022/07/25 17:58:14;;;;;;;9.07;7.40;;;;;33.60;98246.00;;;;16638773;28;20265;-81
2022/07/25 18:06:17;;;;;;;7.90;7.30;;;;;33.40;98253.00;;;;16667969;22;20262;-48
2022/07/25 18:14:21;;;;;;;10.40;7.33;;;;;32.60;98279.00;;;;16650856;28;20665;-48
2022/07/25 18:22:23;;;;;;;9.27;7.60;;;;;31.90;98296.00;;;;16659384;28;20279;-48
2022/07/25 18:30:27;;;;;;;9.07;7.43;;;;;31.20;98321.00;;;;16645988;28;20381;-47
2022/07/25 18:38:30;;;;;;;8.30;7.60;;;;;31.10;98334.00;;;;16652675;28;20313;-48
2022/07/25 18:46:34;;;;;;;8.63;7.23;;;;;30.60;98354.00;;;;16655638;28;20309;-50
2022/07/25 18:54:36;;;;;;;10.03;6.03;;;;;30.10;98369.00;;;;16650826;28;20211;-48
2022/07/25 19:02:40;;;;;;;8.10;6.57;;;;;30.30;98376.00;;;;16640956;28;20249;-47
2022/07/25 19:10:43;;;;;;;6.40;5.70;;;;;30.00;98399.00;;;;16647141;28;20244;-46
2022/07/25 19:18:47;;;;;;;6.20;5.60;;;;;29.70;98410.00;;;;16658978;28;20219;-46
2022/07/25 19:26:50;;;;;;;5.27;4.87;;;;;29.50;98435.00;;;;16654108;28;20218;-46
2022/07/25 19:34:54;;;;;;;8.30;5.30;;;;;29.40;98440.00;;;;16646903;28;20309;-47
2022/07/25 19:42:56;;;;;;;4.80;4.40;;;;;29.50;98453.00;;;;16648327;28;20253;-49
2022/07/25 19:51:00;;;;;;;4.33;3.70;;;;;29.20;98463.00;;;;16649586;28;20214;-46
2022/07/25 19:59:03;;;;;;;6.27;4.20;;;;;28.90;98472.00;;;;16643016;28;20314;-47
2022/07/25 20:07:07;;;;;;;8.70;4.30;;;;;28.70;98483.00;;;;16649579;28;20754;-45
2022/07/25 20:15:09;;;;;;;4.73;4.30;;;;;28.70;98489.00;;;;16644553;28;20308;-46
2022/07/25 20:23:13;;;;;;;4.53;4.13;;;;;28.60;98502.00;;;;16652723;28;20242;-46
2022/07/25 20:31:16;;;;;;;6.20;4.03;;;;;28.40;98505.00;;;;16644083;28;20250;-46
2022/07/25 20:39:20;;;;;;;4.50;4.10;;;;;28.30;98508.00;;;;16643817;28;20225;-46
2022/07/25 20:47:24;;;;;;;6.07;3.80;;;;;28.20;98502.00;;;;16641219;28;20210;-46
2022/07/25 20:55:30;;;;;;;7.90;4.33;;;;;28.20;98528.00;;;;16641429;28;20305;-46
2022/07/25 21:03:32;;;;;;;8.20;4.20;;;;;27.90;98530.00;;;;16643232;28;21034;-46
2022/07/25 21:11:36;;;;;;;6.93;4.10;;;;;27.70;98530.00;;;;16642333;28;20925;-46
2022/07/25 21:19:39;;;;;;;8.33;3.40;;;;;27.90;98538.00;;;;16643504;28;20218;-46
2022/07/25 21:27:43;;;;;;;5.17;3.40;;;;;27.70;98539.00;;;;16644016;28;20619;-45
2022/07/25 21:35:45;;;;;;;4.67;3.30;;;;;27.60;98573.00;;;;16646625;28;20222;-47
2022/07/25 21:43:49;;;;;;;5.20;3.07;;;;;27.60;98583.00;;;;16645807;28;20211;-46
2022/07/25 21:51:52;;;;;;;6.20;3.87;;;;;27.30;98599.00;;;;16643563;28;20218;-46
2022/07/25 21:59:56;;;;;;;3.77;3.17;;;;;26.90;98610.00;;;;16639053;28;20292;-46
2022/07/25 22:07:58;;;;;;;6.10;3.60;;;;;26.80;98598.00;;;;16650318;28;20203;-46
2022/07/25 22:16:02;;;;;;;4.73;3.87;;;;;26.80;98619.00;;;;16646756;28;20309;-46
2022/07/25 22:24:05;;;;;;;5.93;3.57;;;;;26.20;98617.00;;;;16649675;28;20325;-46
2022/07/25 22:32:09;;;;;;;6.20;3.27;;;;;26.20;98605.00;;;;16649128;28;20360;-47
2022/07/25 22:40:12;;;;;;;4.13;3.27;;;;;25.80;98625.00;;;;16650921;28;20301;-46
2022/07/25 22:48:16;;;;;;;3.67;2.73;;;;;25.50;98636.00;;;;16653689;28;20344;-46
2022/07/25 22:56:19;;;;;;;3.80;3.37;;;;;25.30;98653.00;;;;16643124;28;20754;-46
2022/07/25 23:04:23;;;;;;;3.97;3.10;;;;;25.40;98660.00;;;;16634249;28;20278;-46
2022/07/25 23:12:25;;;;;;;8.53;3.10;;;;;25.20;98661.00;;;;16643790;28;20305;-46
2022/07/25 23:20:29;;;;;;;4.63;3.03;;;;;25.20;98669.00;;;;16641786;28;20416;-46
2022/07/25 23:28:32;;;;;;;3.83;3.20;;;;;24.80;98684.00;;;;16643075;28;20237;-46
2022/07/25 23:36:36;;;;;;;4.40;2.70;;;;;24.90;98685.00;;;;16645370;28;20269;-47
2022/07/25 23:44:38;;;;;;;4.23;3.13;;;;;25.10;98687.00;;;;16637208;28;20268;-46
2022/07/25 23:52:42;;;;;;;3.27;2.97;;;;;24.50;98694.00;;;;16642648;28;20701;-47
